createdAt,value
2018-11-13T00:00:25.717Z,4.88
2018-11-13T00:02:55.158Z,4.80
2018-11-13T00:05:24.471Z,4.76
2018-11-13T00:07:53.510Z,4.76
2018-11-13T00:10:22.536Z,4.75
2018-11-13T00:12:51.549Z,4.76
2018-11-13T00:15:20.502Z,4.76
2018-11-13T00:17:49.437Z,4.75
2018-11-13T00:20:19.320Z,4.78
2018-11-13T00:22:48.270Z,4.77
2018-11-13T00:25:18.331Z,4.77
2018-11-13T00:27:47.310Z,4.76
2018-11-13T00:30:17.902Z,4.75
2018-11-13T00:32:46.826Z,4.75
2018-11-13T00:35:16.561Z,4.75
2018-11-13T00:37:46.187Z,4.76
2018-11-13T00:40:15.436Z,4.71
2018-11-13T00:42:45.127Z,4.68
2018-11-13T00:45:14.089Z,4.66
2018-11-13T00:47:43.068Z,4.66
2018-11-13T00:50:13.778Z,4.65
2018-11-13T00:52:43.729Z,4.63
2018-11-13T00:55:12.774Z,4.58
2018-11-13T00:57:42.758Z,4.49
2018-11-13T01:00:14.715Z,4.45
2018-11-13T01:02:43.878Z,4.42
2018-11-13T01:05:14.442Z,4.40
2018-11-13T01:07:44.507Z,4.37
2018-11-13T01:10:14.378Z,4.34
2018-11-13T01:12:44.470Z,4.31
2018-11-13T01:15:14.559Z,4.28
2018-11-13T01:17:44.391Z,4.24
2018-11-13T01:20:13.932Z,4.18
2018-11-13T01:22:42.946Z,4.19
2018-11-13T01:25:13.107Z,4.17
2018-11-13T01:27:42.599Z,4.14
2018-11-13T01:30:12.641Z,4.09
2018-11-13T01:32:42.391Z,4.06
2018-11-13T01:35:12.933Z,4.10
2018-11-13T01:37:41.982Z,4.15
2018-11-13T01:40:13.190Z,4.19
2018-11-13T01:42:42.450Z,4.27
2018-11-13T01:45:12.787Z,4.28
2018-11-13T01:47:41.871Z,4.31
2018-11-13T01:50:11.367Z,4.27
2018-11-13T01:52:40.302Z,4.35
2018-11-13T01:55:11.354Z,4.36
2018-11-13T01:57:40.307Z,4.35
2018-11-13T02:00:14.743Z,4.37
2018-11-13T02:02:44.330Z,4.33
2018-11-13T02:05:13.283Z,4.32
2018-11-13T02:07:42.254Z,4.33
2018-11-13T02:10:11.181Z,4.33
2018-11-13T02:12:40.155Z,4.31
2018-11-13T02:15:09.602Z,4.26
2018-11-13T02:17:38.681Z,4.21
2018-11-13T02:20:09.922Z,4.16
2018-11-13T02:22:39.221Z,4.14
2018-11-13T02:25:10.027Z,4.16
2018-11-13T02:27:39.150Z,4.13
2018-11-13T02:30:09.728Z,4.16
2018-11-13T02:32:38.930Z,4.16
2018-11-13T02:35:08.868Z,4.17
2018-11-13T02:37:37.873Z,4.16
2018-11-13T02:40:06.916Z,4.19
2018-11-13T02:42:36.789Z,4.18
2018-11-13T02:45:07.985Z,4.09
2018-11-13T02:47:36.970Z,4.01
2018-11-13T02:50:07.387Z,4.13
2018-11-13T02:52:36.583Z,4.11
2018-11-13T02:55:05.536Z,4.16
2018-11-13T02:57:34.630Z,4.18
2018-11-13T03:00:03.659Z,4.22
2018-11-13T03:02:32.621Z,4.23
2018-11-13T03:05:01.587Z,4.21
2018-11-13T03:07:30.538Z,4.20
2018-11-13T03:09:59.495Z,4.21
2018-11-13T03:12:28.470Z,4.20
2018-11-13T03:14:57.482Z,4.13
2018-11-13T03:17:26.403Z,4.16
2018-11-13T03:19:55.314Z,4.14
2018-11-13T03:22:24.280Z,4.11
2018-11-13T03:24:53.306Z,4.08
2018-11-13T03:27:22.309Z,4.04
2018-11-13T03:29:51.261Z,4.05
2018-11-13T03:32:20.352Z,4.01
2018-11-13T03:34:49.290Z,3.96
2018-11-13T03:37:18.244Z,3.91
2018-11-13T03:39:47.202Z,3.88
2018-11-13T03:42:16.219Z,3.87
2018-11-13T03:44:45.168Z,3.85
2018-11-13T03:47:14.126Z,3.81
2018-11-13T03:49:43.103Z,3.79
2018-11-13T03:52:12.112Z,3.74
2018-11-13T03:54:41.091Z,3.72
2018-11-13T03:57:10.043Z,3.71
2018-11-13T03:59:39.067Z,3.70
2018-11-13T04:02:07.986Z,3.69
2018-11-13T04:04:36.938Z,3.76
2018-11-13T04:07:06.104Z,3.77
2018-11-13T04:09:35.072Z,3.79
2018-11-13T04:12:04.006Z,3.82
2018-11-13T04:14:32.948Z,3.84
2018-11-13T04:17:02.007Z,3.87
2018-11-13T04:19:30.937Z,3.86
2018-11-13T04:22:03.090Z,3.87
2018-11-13T04:24:32.147Z,3.85
2018-11-13T04:27:01.751Z,3.87
2018-11-13T04:29:31.034Z,3.84
2018-11-13T04:32:00.028Z,3.81
2018-11-13T04:34:28.984Z,3.81
2018-11-13T04:36:57.932Z,3.80
2018-11-13T04:39:26.923Z,3.80
2018-11-13T04:41:55.861Z,3.76
2018-11-13T04:44:24.786Z,3.73
2018-11-13T04:46:53.738Z,3.71
2018-11-13T04:49:22.730Z,3.72
2018-11-13T04:51:51.694Z,3.74
2018-11-13T04:54:20.630Z,3.76
2018-11-13T04:56:49.594Z,3.76
2018-11-13T04:59:18.535Z,3.72
2018-11-13T05:01:47.537Z,3.71
2018-11-13T05:04:16.490Z,3.74
2018-11-13T05:06:45.459Z,3.78
2018-11-13T05:09:14.561Z,3.80
2018-11-13T05:11:43.497Z,3.86
2018-11-13T05:14:12.680Z,3.81
2018-11-13T05:16:41.622Z,3.78
2018-11-13T05:19:10.622Z,3.80
2018-11-13T05:21:39.655Z,3.86
2018-11-13T05:24:08.618Z,3.91
2018-11-13T05:26:37.600Z,3.98
2018-11-13T05:29:06.576Z,4.03
2018-11-13T05:31:35.545Z,4.11
2018-11-13T05:34:04.495Z,4.18
2018-11-13T05:36:33.463Z,4.30
2018-11-13T05:39:02.417Z,4.45
2018-11-13T05:41:31.445Z,4.67
2018-11-13T05:44:00.392Z,4.83
2018-11-13T05:46:29.328Z,4.92
2018-11-13T05:48:58.287Z,5.07
2018-11-13T05:51:27.268Z,5.14
2018-11-13T05:53:56.235Z,5.27
2018-11-13T05:56:26.015Z,5.37
2018-11-13T05:58:55.001Z,5.44
2018-11-13T06:01:23.962Z,5.54
2018-11-13T06:03:52.993Z,5.58
2018-11-13T06:06:21.948Z,5.74
2018-11-13T06:08:50.909Z,5.84
2018-11-13T06:11:19.887Z,6.04
2018-11-13T06:13:48.859Z,6.26
2018-11-13T06:16:17.817Z,6.49
2018-11-13T06:18:46.790Z,6.77
2018-11-13T06:21:15.787Z,7.02
2018-11-13T06:23:44.759Z,7.43
2018-11-13T06:26:13.718Z,7.80
2018-11-13T06:28:42.668Z,8.33
2018-11-13T06:31:11.594Z,8.70
2018-11-13T06:33:40.558Z,8.98
2018-11-13T06:36:09.527Z,9.31
2018-11-13T06:38:38.490Z,9.63
2018-11-13T06:41:07.516Z,10.09
2018-11-13T06:43:36.495Z,10.43
2018-11-13T06:46:05.812Z,10.46
2018-11-13T06:48:34.815Z,10.60
2018-11-13T06:51:04.100Z,10.71
2018-11-13T06:53:41.499Z,10.70
2018-11-13T06:56:10.463Z,10.53
2018-11-13T06:58:39.464Z,10.56
2018-11-13T07:01:08.450Z,10.35
2018-11-13T07:03:37.387Z,10.38
2018-11-13T07:06:06.442Z,10.15
2018-11-13T07:08:35.414Z,10.02
2018-11-13T07:11:04.421Z,9.79
2018-11-13T07:13:33.414Z,9.70
2018-11-13T07:16:02.365Z,9.65
2018-11-13T07:18:31.360Z,9.55
2018-11-13T07:21:00.313Z,9.55
2018-11-13T07:23:29.256Z,9.49
2018-11-13T07:25:58.186Z,9.45
2018-11-13T07:28:27.229Z,9.48
2018-11-13T07:30:56.187Z,9.52
2018-11-13T07:33:25.163Z,9.51
2018-11-13T07:35:54.112Z,9.58
2018-11-13T07:38:23.079Z,9.67
2018-11-13T07:40:52.090Z,9.81
2018-11-13T07:43:20.983Z,9.91
2018-11-13T07:45:49.939Z,9.97
2018-11-13T07:48:18.888Z,10.14
2018-11-13T07:50:47.934Z,10.36
2018-11-13T07:53:16.880Z,10.37
2018-11-13T07:55:45.839Z,10.40
2018-11-13T07:58:14.829Z,10.38
2018-11-13T08:00:43.758Z,10.46
2018-11-13T08:03:43.770Z,10.52
2018-11-13T08:06:12.764Z,10.66
2018-11-13T08:08:41.782Z,10.81
2018-11-13T08:11:10.733Z,10.95
2018-11-13T08:13:39.869Z,11.03
2018-11-13T08:16:08.743Z,11.17
2018-11-13T08:18:37.700Z,11.52
2018-11-13T08:21:06.656Z,11.93
2018-11-13T08:23:35.701Z,12.05
2018-11-13T08:26:04.647Z,12.32
2018-11-13T08:28:33.682Z,12.62
2018-11-13T08:31:02.692Z,12.50
2018-11-13T08:33:31.642Z,12.49
2018-11-13T08:36:00.616Z,12.59
2018-11-13T08:38:29.614Z,12.85
2018-11-13T08:40:58.536Z,12.99
2018-11-13T08:43:27.510Z,13.12
2018-11-13T08:45:56.523Z,13.34
2018-11-13T08:48:25.550Z,13.53
2018-11-13T08:50:54.532Z,13.70
2018-11-13T08:53:23.485Z,13.69
2018-11-13T08:55:52.436Z,13.75
2018-11-13T08:58:21.402Z,13.90
2018-11-13T09:00:50.480Z,13.91
2018-11-13T09:03:19.607Z,13.79
2018-11-13T09:05:48.571Z,13.82
2018-11-13T09:08:17.524Z,13.87
2018-11-13T09:10:46.510Z,13.88
2018-11-13T09:13:15.478Z,13.98
2018-11-13T09:15:44.445Z,14.41
2018-11-13T09:18:13.411Z,14.87
2018-11-13T09:20:42.367Z,14.82
2018-11-13T09:23:11.339Z,15.02
2018-11-13T09:25:40.324Z,15.19
2018-11-13T09:28:09.299Z,15.32
2018-11-13T09:30:38.435Z,15.14
2018-11-13T09:33:07.342Z,15.38
2018-11-13T09:35:36.270Z,15.63
2018-11-13T09:38:05.220Z,15.79
2018-11-13T09:40:34.188Z,15.81
2018-11-13T09:43:03.210Z,15.97
2018-11-13T09:45:32.197Z,16.28
2018-11-13T09:48:01.193Z,16.42
2018-11-13T09:50:30.153Z,16.80
2018-11-13T09:52:59.099Z,16.90
2018-11-13T09:55:28.105Z,16.97
2018-11-13T09:57:57.115Z,17.17
2018-11-13T10:00:27.125Z,17.78
2018-11-13T10:02:58.922Z,18.26
2018-11-13T10:05:27.372Z,18.87
2018-11-13T10:07:56.670Z,19.09
2018-11-13T10:10:26.299Z,19.23
2018-11-13T10:12:55.386Z,19.39
2018-11-13T10:15:25.777Z,19.74
2018-11-13T10:17:54.813Z,19.92
2018-11-13T10:20:23.746Z,20.05
2018-11-13T10:22:53.957Z,20.46
2018-11-13T10:25:22.908Z,20.43
2018-11-13T10:27:51.929Z,19.69
2018-11-13T10:30:22.229Z,19.72
2018-11-13T10:32:52.037Z,19.55
2018-11-13T10:35:22.333Z,19.42
2018-11-13T10:37:51.367Z,19.05
2018-11-13T10:40:21.316Z,18.73
2018-11-13T10:42:50.795Z,18.57
2018-11-13T10:45:21.637Z,18.19
2018-11-13T10:47:50.581Z,18.50
2018-11-13T10:50:21.476Z,18.61
2018-11-13T10:52:50.398Z,18.86
2018-11-13T10:55:19.410Z,19.32
2018-11-13T10:57:48.357Z,20.19
2018-11-13T11:00:22.758Z,20.67
2018-11-13T11:02:56.737Z,20.72
2018-11-13T11:05:26.975Z,21.04
2018-11-13T11:07:56.332Z,20.65
2018-11-13T11:10:25.654Z,21.00
2018-11-13T11:12:54.741Z,20.97
2018-11-13T11:15:23.820Z,20.73
2018-11-13T11:17:52.817Z,20.82
2018-11-13T11:20:21.794Z,20.84
2018-11-13T11:22:50.853Z,20.46
2018-11-13T11:25:19.911Z,20.11
2018-11-13T11:27:48.847Z,20.11
2018-11-13T11:30:17.769Z,19.88
2018-11-13T11:32:46.733Z,19.08
2018-11-13T11:35:15.707Z,18.48
2018-11-13T11:37:44.709Z,18.10
2018-11-13T11:40:13.815Z,17.84
2018-11-13T11:42:42.851Z,17.49
2018-11-13T11:45:13.307Z,17.27
2018-11-13T11:47:42.292Z,17.31
2018-11-13T11:50:12.425Z,17.42
2018-11-13T11:52:41.368Z,17.37
2018-11-13T11:55:11.254Z,17.42
2018-11-13T11:57:40.304Z,17.31
2018-11-13T12:00:18.781Z,17.03
2018-11-13T12:02:47.743Z,16.94
2018-11-13T12:05:16.761Z,16.74
2018-11-13T12:07:45.874Z,16.54
2018-11-13T12:10:14.906Z,16.53
2018-11-13T12:12:43.860Z,16.49
2018-11-13T12:15:13.696Z,16.45
2018-11-13T12:17:43.475Z,16.46
2018-11-13T12:20:13.730Z,16.41
2018-11-13T12:22:42.873Z,16.30
2018-11-13T12:25:15.161Z,16.22
2018-11-13T12:27:44.196Z,16.03
2018-11-13T12:30:15.605Z,15.90
2018-11-13T12:32:45.213Z,15.78
2018-11-13T12:35:15.258Z,15.63
2018-11-13T12:37:44.204Z,15.71
2018-11-13T12:40:17.611Z,15.66
2018-11-13T12:42:47.472Z,15.67
2018-11-13T12:45:17.104Z,15.68
2018-11-13T12:47:46.142Z,15.59
2018-11-13T12:50:16.254Z,15.42
2018-11-13T12:52:45.214Z,15.33
2018-11-13T12:55:20.825Z,15.22
2018-11-13T12:57:49.823Z,15.19
2018-11-13T13:00:24.258Z,15.16
2018-11-13T13:02:53.199Z,15.12
2018-11-13T13:05:22.161Z,15.12
2018-11-13T13:07:51.105Z,15.10
2018-11-13T13:10:21.014Z,15.09
2018-11-13T13:12:50.016Z,15.07
2018-11-13T13:15:19.342Z,14.97
2018-11-13T13:17:48.358Z,14.93
2018-11-13T13:20:20.046Z,14.95
2018-11-13T13:22:49.804Z,15.00
2018-11-13T13:25:19.725Z,15.07
2018-11-13T13:27:48.760Z,15.21
2018-11-13T13:30:21.917Z,15.30
2018-11-13T13:32:51.161Z,15.30
2018-11-13T13:35:55.998Z,15.24
2018-11-13T13:38:25.133Z,15.15
2018-11-13T13:40:55.369Z,15.11
2018-11-13T13:43:24.972Z,15.09
2018-11-13T13:45:53.973Z,15.15
2018-11-13T13:48:23.373Z,15.11
2018-11-13T13:50:52.379Z,15.10
2018-11-13T13:53:21.993Z,15.02
2018-11-13T13:55:51.144Z,14.88
2018-11-13T13:58:21.494Z,14.73
2018-11-13T14:00:50.854Z,14.59
2018-11-13T14:03:19.747Z,14.43
2018-11-13T14:05:48.895Z,14.26
2018-11-13T14:08:18.401Z,13.84
2018-11-13T14:10:47.381Z,13.89
2018-11-13T14:13:16.504Z,13.75
2018-11-13T14:15:45.467Z,13.64
2018-11-13T14:18:14.508Z,13.51
2018-11-13T14:20:43.492Z,13.34
2018-11-13T14:23:12.464Z,13.22
2018-11-13T14:25:41.452Z,13.13
2018-11-13T14:28:10.406Z,13.03
2018-11-13T14:30:39.481Z,12.93
2018-11-13T14:33:09.640Z,12.82
2018-11-13T14:35:38.681Z,12.75
2018-11-13T14:38:07.760Z,12.67
2018-11-13T14:40:52.077Z,12.57
2018-11-13T14:43:21.056Z,12.52
2018-11-13T14:45:49.991Z,12.41
2018-11-13T14:48:18.959Z,12.37
2018-11-13T14:50:47.897Z,12.35
2018-11-13T14:53:16.915Z,12.25
2018-11-13T14:55:46.355Z,12.21
2018-11-13T14:58:16.440Z,12.07
2018-11-13T15:00:45.422Z,12.01
2018-11-13T15:03:15.715Z,12.05
2018-11-13T15:05:44.690Z,12.05
2018-11-13T15:08:13.683Z,11.97
2018-11-13T15:10:58.177Z,12.08
2018-11-13T15:13:27.844Z,11.99
2018-11-13T15:15:56.845Z,11.92
2018-11-13T15:18:25.776Z,11.91
2018-11-13T15:20:54.763Z,11.95
2018-11-13T15:23:23.708Z,11.98
2018-11-13T15:25:52.671Z,11.92
2018-11-13T15:28:21.615Z,11.83
2018-11-13T15:30:51.104Z,11.82
2018-11-13T15:33:21.596Z,11.82
2018-11-13T15:35:50.636Z,11.74
2018-11-13T15:38:19.701Z,11.70
2018-11-13T15:40:48.671Z,11.65
2018-11-13T15:43:17.683Z,11.58
2018-11-13T15:45:46.638Z,11.57
2018-11-13T15:48:16.189Z,11.48
2018-11-13T15:50:45.148Z,11.42
2018-11-13T15:53:14.221Z,11.34
2018-11-13T15:55:43.192Z,11.26
2018-11-13T15:58:12.187Z,11.16
2018-11-13T16:00:42.037Z,11.07
2018-11-13T16:03:14.639Z,11.00
2018-11-13T16:05:47.160Z,10.90
2018-11-13T16:08:16.151Z,10.85
2018-11-13T16:10:45.178Z,10.86
2018-11-13T16:13:14.240Z,10.82
2018-11-13T16:15:43.709Z,10.87
2018-11-13T16:18:15.303Z,10.86
2018-11-13T16:20:44.284Z,10.82
2018-11-13T16:23:13.978Z,10.73
2018-11-13T16:25:43.130Z,10.74
2018-11-13T16:28:12.116Z,10.66
2018-11-13T16:30:41.356Z,10.67
2018-11-13T16:33:10.307Z,10.67
2018-11-13T16:35:39.260Z,10.62
2018-11-13T16:38:09.674Z,10.61
2018-11-13T16:40:38.662Z,10.59
2018-11-13T16:43:07.686Z,10.62
2018-11-13T16:45:36.737Z,10.57
2018-11-13T16:48:06.818Z,10.56
2018-11-13T16:50:37.800Z,10.53
2018-11-13T16:53:07.173Z,10.51
2018-11-13T16:55:41.075Z,10.52
2018-11-13T16:58:11.584Z,10.51
2018-11-13T17:00:40.635Z,10.44
2018-11-13T17:03:09.637Z,10.32
2018-11-13T17:05:38.717Z,10.22
2018-11-13T17:08:07.599Z,10.28
2018-11-13T17:10:39.483Z,10.27
2018-11-13T17:13:08.481Z,10.22
2018-11-13T17:15:37.502Z,10.15
2018-11-13T17:18:06.903Z,10.17
2018-11-13T17:20:36.001Z,10.10
2018-11-13T17:23:04.921Z,10.07
2018-11-13T17:25:35.376Z,10.06
2018-11-13T17:28:04.351Z,10.08
2018-11-13T17:30:34.628Z,10.03
2018-11-13T17:33:04.762Z,9.91
2018-11-13T17:35:33.739Z,9.86
2018-11-13T17:38:03.308Z,9.80
2018-11-13T17:40:34.465Z,9.79
2018-11-13T17:43:04.900Z,9.73
2018-11-13T17:45:36.754Z,9.60
2018-11-13T17:48:06.486Z,9.59
2018-11-13T17:50:36.590Z,9.58
2018-11-13T17:53:06.424Z,9.49
2018-11-13T17:55:35.708Z,9.45
2018-11-13T17:58:06.497Z,9.38
2018-11-13T18:00:37.663Z,9.29
2018-11-13T18:03:07.839Z,9.15
2018-11-13T18:05:37.126Z,9.08
2018-11-13T18:08:06.731Z,9.00
2018-11-13T18:10:36.651Z,8.84
2018-11-13T18:13:06.367Z,8.75
2018-11-13T18:15:35.354Z,8.67
2018-11-13T18:18:04.801Z,8.57
2018-11-13T18:20:36.190Z,8.52
2018-11-13T18:23:05.142Z,8.43
2018-11-13T18:25:34.215Z,8.31
2018-11-13T18:28:03.627Z,8.25
2018-11-13T18:30:33.941Z,8.10
2018-11-13T18:33:03.829Z,8.05
2018-11-13T18:35:34.418Z,7.92
2018-11-13T18:38:04.852Z,7.89
2018-11-13T18:40:33.719Z,7.80
2018-11-13T18:43:03.498Z,7.75
2018-11-13T18:45:34.734Z,7.67
2018-11-13T18:48:03.829Z,7.60
2018-11-13T18:50:34.155Z,7.53
2018-11-13T18:53:03.144Z,7.51
2018-11-13T18:55:32.152Z,7.50
2018-11-13T18:58:01.741Z,7.49
2018-11-13T19:00:32.287Z,7.43
2018-11-13T19:03:02.161Z,7.38
2018-11-13T19:05:31.119Z,7.30
2018-11-13T19:08:00.559Z,7.22
2018-11-13T19:10:36.405Z,7.21
2018-11-13T19:13:07.442Z,7.21
2018-11-13T19:15:38.957Z,7.20
2018-11-13T19:18:08.464Z,7.13
2018-11-13T19:20:37.438Z,7.07
2018-11-13T19:23:06.687Z,6.97
2018-11-13T19:25:36.273Z,6.98
2018-11-13T19:28:05.212Z,6.85
2018-11-13T19:30:36.617Z,6.83
2018-11-13T19:33:05.635Z,6.85
2018-11-13T19:35:34.835Z,6.79
2018-11-13T19:38:03.605Z,6.75
2018-11-13T19:40:33.662Z,6.73
2018-11-13T19:43:04.123Z,6.69
2018-11-13T19:45:33.101Z,6.56
2018-11-13T19:48:02.075Z,6.63
2018-11-13T19:50:32.420Z,6.58
2018-11-13T19:53:01.518Z,6.54
2018-11-13T19:55:31.187Z,6.55
2018-11-13T19:58:00.165Z,6.56
2018-11-13T20:00:32.343Z,6.54
2018-11-13T20:03:02.717Z,6.49
2018-11-13T20:05:33.030Z,6.47
2018-11-13T20:08:02.134Z,6.43
2018-11-13T20:10:32.334Z,6.40
2018-11-13T20:13:02.642Z,6.38
2018-11-13T20:15:32.377Z,6.38
2018-11-13T20:18:01.412Z,6.26
2018-11-13T20:20:31.617Z,6.24
2018-11-13T20:23:01.695Z,6.22
2018-11-13T20:25:31.794Z,6.15
2018-11-13T20:28:00.821Z,6.16
2018-11-13T20:30:38.336Z,6.15
2018-11-13T20:33:07.497Z,6.15
2018-11-13T20:35:36.537Z,6.15
2018-11-13T20:38:05.966Z,6.14
2018-11-13T20:40:36.066Z,6.07
2018-11-13T20:43:06.571Z,6.01
2018-11-13T20:45:35.579Z,5.89
2018-11-13T20:48:04.597Z,5.89
2018-11-13T20:50:34.570Z,5.85
2018-11-13T20:53:04.075Z,5.82
2018-11-13T20:55:33.047Z,5.80
2018-11-13T20:58:02.165Z,5.79
2018-11-13T21:00:33.391Z,5.78
2018-11-13T21:03:02.385Z,5.78
2018-11-13T21:05:31.474Z,5.80
2018-11-13T21:08:00.461Z,5.77
2018-11-13T21:10:37.900Z,5.76
2018-11-13T21:13:07.604Z,5.75
2018-11-13T21:15:36.649Z,5.73
2018-11-13T21:18:05.663Z,5.72
2018-11-13T21:20:34.725Z,5.73
2018-11-13T21:23:03.676Z,5.70
2018-11-13T21:25:32.640Z,5.72
2018-11-13T21:28:02.490Z,5.72
2018-11-13T21:30:31.552Z,5.72
2018-11-13T21:33:00.520Z,5.68
2018-11-13T21:35:29.455Z,5.63
2018-11-13T21:37:58.725Z,5.56
2018-11-13T21:40:28.418Z,5.47
2018-11-13T21:42:57.881Z,5.47
2018-11-13T21:45:27.669Z,5.49
2018-11-13T21:47:56.633Z,5.54
2018-11-13T21:50:27.009Z,5.54
2018-11-13T21:52:55.938Z,5.52
2018-11-13T21:55:26.142Z,5.45
2018-11-13T21:57:55.115Z,5.42
2018-11-13T22:00:27.990Z,5.35
2018-11-13T22:02:58.978Z,5.31
2018-11-13T22:05:29.104Z,5.28
2018-11-13T22:07:58.142Z,5.22
2018-11-13T22:10:27.110Z,5.22
2018-11-13T22:12:56.067Z,5.20
2018-11-13T22:15:26.122Z,5.17
2018-11-13T22:17:56.050Z,5.19
2018-11-13T22:20:25.531Z,5.16
2018-11-13T22:22:55.767Z,5.15
2018-11-13T22:25:25.668Z,5.13
2018-11-13T22:27:55.902Z,5.15
2018-11-13T22:30:26.168Z,5.12
2018-11-13T22:32:55.139Z,5.08
2018-11-13T22:35:24.477Z,5.11
2018-11-13T22:37:53.440Z,5.11
2018-11-13T22:40:24.330Z,5.14
2018-11-13T22:42:53.361Z,5.19
2018-11-13T22:45:23.567Z,5.21
2018-11-13T22:47:52.863Z,5.24
2018-11-13T22:50:23.170Z,5.24
2018-11-13T22:52:52.592Z,5.23
2018-11-13T22:55:21.634Z,5.24
2018-11-13T22:57:52.284Z,5.24
2018-11-13T23:00:23.942Z,5.27
2018-11-13T23:02:54.053Z,5.23
2018-11-13T23:05:23.017Z,5.23
2018-11-13T23:07:51.975Z,5.19
2018-11-13T23:10:20.962Z,5.16
2018-11-13T23:12:49.943Z,5.17
2018-11-13T23:15:20.516Z,5.17
2018-11-13T23:17:49.496Z,5.17
2018-11-13T23:20:19.723Z,5.16
2018-11-13T23:22:48.662Z,5.17
2018-11-13T23:25:18.774Z,5.20
2018-11-13T23:27:48.776Z,5.18
2018-11-13T23:30:20.560Z,5.15
2018-11-13T23:32:49.965Z,5.18
2018-11-13T23:35:19.132Z,5.17
2018-11-13T23:37:49.465Z,5.13
2018-11-13T23:40:19.852Z,5.08
2018-11-13T23:42:49.247Z,5.03
2018-11-13T23:45:19.499Z,5.04
2018-11-13T23:47:49.006Z,5.09
2018-11-13T23:50:18.021Z,5.13
2018-11-13T23:52:47.903Z,5.09
2018-11-13T23:55:17.284Z,5.07
2018-11-13T23:57:46.886Z,5.05
